createdAt,value
2018-07-21T00:02:22.435Z,8.17
2018-07-21T00:04:51.511Z,7.60
2018-07-21T00:07:20.583Z,7.20
2018-07-21T00:09:49.714Z,7.20
2018-07-21T00:12:18.816Z,7.97
2018-07-21T00:14:47.863Z,7.37
2018-07-21T00:17:16.926Z,7.17
2018-07-21T00:19:45.962Z,7.77
2018-07-21T00:22:15.027Z,7.60
2018-07-21T00:24:43.810Z,7.87
2018-07-21T00:27:12.760Z,7.63
2018-07-21T00:29:41.847Z,7.97
2018-07-21T00:32:10.944Z,8.20
2018-07-21T00:34:39.988Z,8.20
2018-07-21T00:37:09.031Z,8.40
2018-07-21T00:39:38.099Z,7.67
2018-07-21T00:42:07.144Z,8.20
2018-07-21T00:44:36.206Z,8.30
2018-07-21T00:47:05.255Z,8.33
2018-07-21T00:49:34.318Z,8.63
2018-07-21T00:52:03.360Z,8.67
2018-07-21T00:54:32.174Z,8.47
2018-07-21T00:57:00.842Z,8.90
2018-07-21T00:59:29.787Z,9.90
2018-07-21T01:01:58.832Z,9.00
2018-07-21T01:04:27.645Z,9.10
2018-07-21T01:06:56.315Z,10.00
2018-07-21T01:09:25.266Z,9.83
2018-07-21T01:11:54.343Z,10.07
2018-07-21T01:14:23.427Z,10.00
2018-07-21T01:16:52.487Z,10.17
2018-07-21T01:19:21.302Z,9.90
2018-07-21T01:21:49.984Z,10.30
2018-07-21T01:24:18.931Z,10.27
2018-07-21T01:26:47.995Z,11.03
2018-07-21T01:29:17.080Z,10.40
2018-07-21T01:31:46.136Z,10.63
2018-07-21T01:34:15.211Z,10.40
2018-07-21T01:36:44.284Z,10.30
2018-07-21T01:39:13.373Z,10.43
2018-07-21T01:41:42.431Z,10.53
2018-07-21T01:44:11.260Z,10.33
2018-07-21T01:46:40.192Z,10.40
2018-07-21T01:49:09.280Z,11.20
2018-07-21T01:51:38.343Z,11.20
2018-07-21T01:54:07.430Z,10.30
2018-07-21T01:56:36.494Z,10.13
2018-07-21T01:59:06.676Z,11.10
2018-07-21T02:01:35.603Z,10.60
2018-07-21T02:04:04.425Z,11.33
2018-07-21T02:06:33.123Z,10.60
2018-07-21T02:09:02.079Z,11.13
2018-07-21T02:11:30.895Z,10.83
2018-07-21T02:13:59.588Z,10.53
2018-07-21T02:16:28.532Z,10.30
2018-07-21T02:18:57.584Z,10.57
2018-07-21T02:21:26.664Z,10.83
2018-07-21T02:23:55.719Z,10.37
2018-07-21T02:26:24.788Z,10.33
2018-07-21T02:28:53.832Z,9.97
2018-07-21T02:31:22.646Z,10.20
2018-07-21T02:33:51.324Z,9.60
2018-07-21T02:36:20.015Z,9.90
2018-07-21T02:38:48.940Z,10.30
2018-07-21T02:41:18.051Z,9.87
2018-07-21T02:43:47.105Z,10.20
2018-07-21T02:46:16.168Z,9.53
2018-07-21T02:48:44.964Z,10.23
2018-07-21T02:51:13.913Z,10.10
2018-07-21T02:53:42.967Z,9.97
2018-07-21T02:56:12.041Z,10.07
2018-07-21T02:58:40.860Z,10.07
2018-07-21T03:01:09.602Z,10.67
2018-07-21T03:03:38.532Z,10.47
2018-07-21T03:06:07.595Z,9.93
2018-07-21T03:08:36.657Z,11.00
2018-07-21T03:11:05.748Z,9.87
2018-07-21T03:13:34.814Z,10.60
2018-07-21T03:16:03.920Z,11.07
2018-07-21T03:18:33.101Z,10.03
2018-07-21T03:21:01.944Z,10.23
2018-07-21T03:23:30.980Z,10.30
2018-07-21T03:25:59.813Z,10.80
2018-07-21T03:28:28.752Z,11.30
2018-07-21T03:30:57.846Z,11.10
2018-07-21T03:33:26.916Z,10.47
2018-07-21T03:35:56.008Z,10.33
2018-07-21T03:38:25.063Z,10.33
2018-07-21T03:40:54.124Z,10.30
2018-07-21T03:43:23.198Z,10.87
2018-07-21T03:45:52.272Z,10.60
2018-07-21T03:48:21.342Z,10.83
2018-07-21T03:50:50.407Z,10.63
2018-07-21T03:53:19.496Z,10.20
2018-07-21T03:55:48.555Z,10.70
2018-07-21T03:58:17.630Z,10.30
2018-07-21T04:00:46.690Z,9.93
2018-07-21T04:03:15.767Z,10.33
2018-07-21T04:05:44.819Z,9.97
2018-07-21T04:08:13.905Z,10.00
2018-07-21T04:10:42.717Z,10.40
2018-07-21T04:13:11.684Z,9.70
2018-07-21T04:15:40.795Z,10.10
2018-07-21T04:18:09.877Z,10.17
2018-07-21T04:20:38.675Z,9.80
2018-07-21T04:23:07.641Z,10.20
2018-07-21T04:25:36.700Z,9.67
2018-07-21T04:28:05.803Z,10.43
2018-07-21T04:30:34.868Z,9.90
2018-07-21T04:33:03.944Z,9.63
2018-07-21T04:35:32.742Z,10.60
2018-07-21T04:38:01.688Z,10.20
2018-07-21T04:40:30.756Z,10.30
2018-07-21T04:42:59.831Z,10.03
2018-07-21T04:45:28.639Z,10.30
2018-07-21T04:47:57.342Z,10.03
2018-07-21T04:50:26.275Z,10.00
2018-07-21T04:52:55.351Z,10.10
2018-07-21T04:55:24.420Z,9.67
2018-07-21T04:57:53.631Z,10.07
2018-07-21T05:00:22.688Z,10.50
2018-07-21T05:02:51.511Z,9.60
2018-07-21T05:05:20.452Z,10.20
2018-07-21T05:07:49.532Z,10.50
2018-07-21T05:10:18.596Z,10.63
2018-07-21T05:12:47.686Z,9.93
2018-07-21T05:15:16.756Z,9.97
2018-07-21T05:17:45.887Z,10.27
2018-07-21T05:20:14.961Z,10.60
2018-07-21T05:22:44.009Z,9.33
2018-07-21T05:25:13.079Z,9.67
2018-07-21T05:27:42.137Z,10.50
2018-07-21T05:30:11.493Z,10.20
2018-07-21T05:32:40.536Z,10.10
2018-07-21T05:35:09.620Z,10.27
2018-07-21T05:37:38.424Z,10.33
2018-07-21T05:40:07.123Z,9.87
2018-07-21T05:42:35.839Z,10.00
2018-07-21T05:45:05.542Z,9.47
2018-07-21T05:47:34.641Z,10.50
2018-07-21T05:50:03.835Z,10.13
2018-07-21T05:52:32.876Z,9.97
2018-07-21T05:55:01.943Z,9.70
2018-07-21T05:57:31.006Z,9.40
2018-07-21T06:00:00.072Z,9.57
2018-07-21T06:02:28.866Z,9.77
2018-07-21T06:04:57.808Z,9.77
2018-07-21T06:07:26.847Z,9.63
2018-07-21T06:09:55.915Z,9.70
2018-07-21T06:12:24.985Z,9.77
2018-07-21T06:14:54.040Z,9.27
2018-07-21T06:17:23.079Z,9.90
2018-07-21T06:19:52.135Z,8.90
2018-07-21T06:22:21.171Z,9.60
2018-07-21T06:24:50.229Z,8.97
2018-07-21T06:27:19.026Z,9.30
2018-07-21T06:29:47.747Z,8.97
2018-07-21T06:32:16.669Z,8.60
2018-07-21T06:34:45.730Z,9.30
2018-07-21T06:37:14.775Z,8.87
2018-07-21T06:39:43.831Z,8.43
2018-07-21T06:42:12.867Z,8.10
2018-07-21T06:44:41.679Z,7.87
2018-07-21T06:47:10.585Z,8.73
2018-07-21T06:49:39.713Z,8.47
2018-07-21T06:52:08.875Z,8.83
2018-07-21T06:54:37.948Z,8.60
2018-07-21T06:57:06.776Z,8.73
2018-07-21T06:59:35.700Z,8.53
2018-07-21T07:02:04.769Z,8.20
2018-07-21T07:04:33.827Z,8.17
2018-07-21T07:07:02.916Z,8.33
2018-07-21T07:09:31.973Z,7.90
2018-07-21T07:12:01.072Z,7.93
2018-07-21T07:14:30.127Z,8.03
2018-07-21T07:16:59.901Z,7.57
2018-07-21T07:19:28.972Z,8.03
2018-07-21T07:21:58.039Z,8.37
2018-07-21T07:24:27.087Z,8.40
2018-07-21T07:26:56.164Z,8.00
2018-07-21T07:29:25.225Z,7.23
2018-07-21T07:31:54.292Z,7.37
2018-07-21T07:34:23.086Z,7.73
2018-07-21T07:36:52.036Z,7.57
2018-07-21T07:39:21.104Z,7.67
2018-07-21T07:41:50.175Z,7.63
2018-07-21T07:44:19.038Z,7.40
2018-07-21T07:46:47.984Z,7.40
2018-07-21T07:49:17.050Z,7.30
2018-07-21T07:51:46.194Z,7.60
2018-07-21T07:54:15.248Z,7.23
2018-07-21T07:56:44.331Z,7.17
2018-07-21T07:59:13.178Z,7.60
2018-07-21T08:01:42.272Z,7.33
2018-07-21T08:04:11.327Z,7.00
2018-07-21T08:06:40.400Z,7.17
2018-07-21T08:09:11.492Z,7.13
2018-07-21T08:11:41.016Z,7.13
2018-07-21T08:14:10.090Z,7.10
2018-07-21T08:16:39.136Z,6.97
2018-07-21T08:19:08.899Z,7.30
2018-07-21T08:21:37.955Z,7.47
2018-07-21T08:24:07.391Z,6.90
2018-07-21T08:26:36.447Z,6.93
2018-07-21T08:29:05.566Z,6.73
2018-07-21T08:31:34.604Z,6.50
2018-07-21T08:34:03.677Z,6.60
2018-07-21T08:36:32.727Z,6.60
2018-07-21T08:39:01.800Z,6.53
2018-07-21T08:41:30.864Z,5.80
2018-07-21T08:43:59.944Z,6.00
2018-07-21T08:46:29.008Z,6.17
2018-07-21T08:48:58.092Z,6.25
2018-07-21T08:51:27.147Z,5.90
2018-07-21T08:53:56.220Z,6.00
2018-07-21T08:56:25.016Z,6.20
2018-07-21T08:58:53.967Z,5.72
2018-07-21T09:01:23.028Z,5.65
2018-07-21T09:03:52.107Z,5.75
2018-07-21T09:06:21.159Z,6.12
2018-07-21T09:08:50.254Z,5.97
2018-07-21T09:11:19.339Z,6.20
2018-07-21T09:13:48.416Z,5.72
2018-07-21T09:16:17.460Z,5.80
2018-07-21T09:18:46.719Z,5.90
2018-07-21T09:21:15.768Z,6.30
2018-07-21T09:23:44.583Z,6.33
2018-07-21T09:26:13.256Z,6.03
2018-07-21T09:28:42.196Z,5.97
2018-07-21T09:31:11.240Z,5.70
2018-07-21T09:33:40.056Z,6.00
2018-07-21T09:36:08.967Z,6.45
2018-07-21T09:38:38.123Z,5.80
2018-07-21T09:41:06.921Z,6.47
2018-07-21T09:43:35.603Z,5.70
2018-07-21T09:46:04.663Z,6.33
2018-07-21T09:48:33.600Z,5.70
2018-07-21T09:51:02.649Z,6.03
2018-07-21T09:53:31.736Z,6.30
2018-07-21T09:56:00.855Z,5.80
2018-07-21T09:58:29.855Z,6.03
2018-07-21T10:01:01.688Z,5.60
2018-07-21T10:03:31.362Z,5.70
2018-07-21T10:06:00.423Z,5.97
2018-07-21T10:08:29.335Z,5.65
2018-07-21T10:10:58.109Z,5.75
2018-07-21T10:13:27.040Z,5.55
2018-07-21T10:15:56.108Z,5.92
2018-07-21T10:18:25.166Z,5.62
2018-07-21T10:20:54.219Z,5.33
2018-07-21T10:23:23.277Z,5.78
2018-07-21T10:25:57.774Z,5.60
2018-07-21T10:28:32.040Z,5.50
2018-07-21T10:31:01.103Z,6.08
2018-07-21T10:33:30.182Z,5.30
2018-07-21T10:35:59.275Z,5.20
2018-07-21T10:38:28.292Z,5.40
2018-07-21T10:40:57.361Z,5.83
2018-07-21T10:43:26.408Z,4.70
2018-07-21T10:45:55.501Z,5.67
2018-07-21T10:48:24.289Z,5.83
2018-07-21T10:50:53.351Z,5.70
2018-07-21T10:53:22.348Z,5.42
2018-07-21T10:55:51.412Z,5.70
2018-07-21T10:58:20.463Z,5.90
2018-07-21T11:00:49.275Z,6.33
2018-07-21T11:03:17.942Z,5.78
2018-07-21T11:05:46.877Z,6.03
2018-07-21T11:08:15.911Z,5.80
2018-07-21T11:10:44.971Z,5.62
2018-07-21T11:13:14.031Z,5.83
2018-07-21T11:15:43.088Z,5.42
2018-07-21T11:18:12.136Z,5.75
2018-07-21T11:20:41.191Z,5.67
2018-07-21T11:23:10.231Z,5.65
2018-07-21T11:25:39.291Z,5.67
2018-07-21T11:28:08.329Z,5.90
2018-07-21T11:30:37.382Z,5.92
2018-07-21T11:33:06.737Z,5.62
2018-07-21T11:35:35.929Z,5.60
2018-07-21T11:38:04.966Z,5.35
2018-07-21T11:40:34.035Z,5.55
2018-07-21T11:43:03.081Z,5.58
2018-07-21T11:45:31.899Z,5.53
2018-07-21T11:48:00.844Z,5.45
2018-07-21T11:50:30.006Z,5.40
2018-07-21T11:52:59.063Z,5.62
2018-07-21T11:55:27.855Z,5.35
2018-07-21T11:57:56.804Z,5.28
2018-07-21T12:00:26.679Z,5.55
2018-07-21T12:02:55.748Z,5.80
2018-07-21T12:05:24.595Z,6.00
2018-07-21T12:07:53.500Z,5.37
2018-07-21T12:10:22.588Z,5.30
2018-07-21T12:12:51.672Z,5.50
2018-07-21T12:15:20.724Z,5.60
2018-07-21T12:17:49.543Z,5.90
2018-07-21T12:20:18.477Z,5.33
2018-07-21T12:22:47.551Z,5.92
2018-07-21T12:25:16.603Z,5.53
2018-07-21T12:27:45.671Z,5.33
2018-07-21T12:30:14.724Z,5.58
2018-07-21T12:32:43.809Z,6.17
2018-07-21T12:35:12.869Z,5.30
2018-07-21T12:37:41.935Z,5.00
2018-07-21T12:40:11.047Z,5.42
2018-07-21T12:42:40.087Z,5.50
2018-07-21T12:45:09.152Z,5.53
2018-07-21T12:47:38.264Z,5.95
2018-07-21T12:50:07.080Z,5.67
2018-07-21T12:52:35.783Z,5.67
2018-07-21T12:55:04.944Z,5.75
2018-07-21T12:57:33.762Z,5.08
2018-07-21T13:00:02.699Z,5.97
2018-07-21T13:02:31.777Z,5.78
2018-07-21T13:05:00.840Z,5.87
2018-07-21T13:07:29.915Z,5.83
2018-07-21T13:09:58.967Z,5.90
2018-07-21T13:12:28.028Z,5.92
2018-07-21T13:14:57.088Z,6.05
2018-07-21T13:17:25.882Z,5.40
2018-07-21T13:19:54.883Z,5.50
2018-07-21T13:22:23.904Z,5.55
2018-07-21T13:24:52.968Z,5.60
2018-07-21T13:27:21.767Z,5.50
2018-07-21T13:29:50.705Z,5.55
2018-07-21T13:32:19.748Z,5.93
2018-07-21T13:34:48.810Z,5.30
2018-07-21T13:37:17.857Z,5.77
2018-07-21T13:39:46.923Z,5.10
2018-07-21T13:42:15.969Z,4.97
2018-07-21T13:44:45.023Z,5.20
2018-07-21T13:47:14.076Z,5.00
2018-07-21T13:49:42.894Z,4.87
2018-07-21T13:52:11.803Z,4.65
2018-07-21T13:54:40.627Z,5.30
2018-07-21T13:57:09.548Z,4.50
2018-07-21T13:59:38.619Z,4.53
2018-07-21T14:02:07.726Z,4.30
2018-07-21T14:04:36.755Z,4.17
2018-07-21T14:07:05.800Z,4.10
2018-07-21T14:09:34.855Z,3.97
2018-07-21T14:12:03.675Z,4.30
2018-07-21T14:14:32.366Z,4.37
2018-07-21T14:17:01.039Z,4.43
2018-07-21T14:19:29.960Z,4.23
2018-07-21T14:21:59.039Z,4.20
2018-07-21T14:24:28.096Z,4.87
2018-07-21T14:26:57.159Z,5.00
2018-07-21T14:29:26.228Z,4.97
2018-07-21T14:31:55.317Z,4.53
2018-07-21T14:34:24.370Z,5.00
2018-07-21T14:36:53.456Z,4.80
2018-07-21T14:39:22.508Z,5.17
2018-07-21T14:41:51.654Z,4.30
2018-07-21T14:44:20.391Z,5.17
2018-07-21T14:46:49.336Z,4.83
2018-07-21T14:49:18.387Z,4.50
2018-07-21T14:51:47.455Z,4.47
2018-07-21T14:54:16.256Z,4.90
2018-07-21T14:56:45.201Z,4.50
2018-07-21T14:59:14.243Z,4.27
2018-07-21T15:01:43.317Z,4.93
2018-07-21T15:04:12.504Z,4.73
2018-07-21T15:06:41.570Z,4.90
2018-07-21T15:09:11.660Z,4.90
2018-07-21T15:11:40.552Z,4.90
2018-07-21T15:14:09.464Z,5.00
2018-07-21T15:16:38.573Z,5.00
2018-07-21T15:19:07.588Z,5.90
2018-07-21T15:21:36.643Z,5.20
2018-07-21T15:24:05.878Z,5.13
2018-07-21T15:26:34.940Z,5.53
2018-07-21T15:29:03.979Z,5.17
2018-07-21T15:31:33.035Z,5.40
2018-07-21T15:34:02.071Z,5.17
2018-07-21T15:36:31.140Z,5.33
2018-07-21T15:39:00.200Z,5.50
2018-07-21T15:41:29.062Z,5.17
2018-07-21T15:43:58.576Z,5.87
2018-07-21T15:46:27.644Z,5.53
2018-07-21T15:48:56.684Z,6.57
2018-07-21T15:51:25.487Z,5.73
2018-07-21T15:53:54.180Z,6.50
2018-07-21T15:56:22.834Z,6.23
2018-07-21T15:58:51.784Z,6.23
2018-07-21T16:01:20.865Z,6.63
2018-07-21T16:03:50.081Z,7.20
2018-07-21T16:06:19.133Z,8.13
2018-07-21T16:08:47.956Z,10.90
2018-07-21T16:11:16.931Z,7.10
2018-07-21T16:13:45.976Z,7.30
2018-07-21T16:16:15.009Z,7.20
2018-07-21T16:18:44.073Z,7.87
2018-07-21T16:21:13.116Z,6.97
2018-07-21T16:23:42.172Z,7.20
2018-07-21T16:26:11.216Z,7.30
2018-07-21T16:28:40.278Z,6.87
2018-07-21T16:31:09.075Z,7.57
2018-07-21T16:33:38.013Z,7.80
2018-07-21T16:36:07.047Z,8.87
2018-07-21T16:38:36.155Z,9.47
2018-07-21T16:41:04.943Z,7.50
2018-07-21T16:43:33.880Z,10.13
2018-07-21T16:46:02.920Z,8.83
2018-07-21T16:48:31.984Z,8.63
2018-07-21T16:51:01.046Z,7.70
2018-07-21T16:53:30.103Z,8.10
2018-07-21T16:55:59.183Z,8.50
2018-07-21T16:58:28.240Z,8.07
2018-07-21T17:00:57.284Z,7.47
2018-07-21T17:03:26.364Z,8.83
2018-07-21T17:05:55.417Z,7.27
2018-07-21T17:08:24.528Z,7.63
2018-07-21T17:10:53.572Z,8.73
2018-07-21T17:13:22.650Z,6.87
2018-07-21T17:15:51.704Z,6.53
2018-07-21T17:18:20.767Z,7.00
2018-07-21T17:20:49.808Z,6.97
2018-07-21T17:23:18.903Z,7.00
2018-07-21T17:25:47.952Z,7.60
2018-07-21T17:28:17.023Z,7.37
2018-07-21T17:30:46.085Z,8.13
2018-07-21T17:33:15.159Z,8.13
2018-07-21T17:35:44.303Z,7.47
2018-07-21T17:38:13.327Z,7.47
2018-07-21T17:40:42.409Z,7.60
2018-07-21T17:43:11.464Z,7.63
2018-07-21T17:45:40.534Z,8.00
2018-07-21T17:48:09.376Z,8.50
2018-07-21T17:50:38.332Z,7.97
2018-07-21T17:53:07.392Z,7.60
2018-07-21T17:55:36.466Z,7.97
2018-07-21T17:58:05.557Z,7.87
2018-07-21T18:00:34.631Z,8.37
2018-07-21T18:03:03.676Z,8.37
2018-07-21T18:05:32.814Z,8.83
2018-07-21T18:08:01.841Z,8.50
2018-07-21T18:10:30.913Z,8.90
2018-07-21T18:12:59.976Z,8.97
2018-07-21T18:15:29.027Z,8.23
2018-07-21T18:17:58.089Z,9.23
2018-07-21T18:20:27.156Z,8.70
2018-07-21T18:22:56.201Z,8.83
2018-07-21T18:25:25.309Z,9.33
2018-07-21T18:27:54.350Z,9.27
2018-07-21T18:30:23.171Z,8.63
2018-07-21T18:32:52.124Z,9.27
2018-07-21T18:35:21.195Z,9.23
2018-07-21T18:37:50.263Z,9.47
2018-07-21T18:40:19.326Z,9.20
2018-07-21T18:42:48.120Z,9.40
2018-07-21T18:45:17.119Z,9.10
2018-07-21T18:47:46.180Z,9.20
2018-07-21T18:50:15.232Z,8.50
2018-07-21T18:52:44.327Z,9.23
2018-07-21T18:55:13.388Z,9.73
2018-07-21T18:57:42.204Z,8.93
2018-07-21T19:00:11.132Z,8.80
2018-07-21T19:02:40.201Z,9.80
2018-07-21T19:05:09.288Z,9.00
2018-07-21T19:07:38.359Z,10.07
2018-07-21T19:10:07.421Z,9.60
2018-07-21T19:12:42.204Z,9.43
2018-07-21T19:15:15.424Z,9.37
2018-07-21T19:17:44.491Z,9.83
2018-07-21T19:20:18.924Z,9.50
2018-07-21T19:22:48.012Z,11.20
2018-07-21T19:25:22.259Z,10.93
2018-07-21T19:27:51.324Z,8.83
2018-07-21T19:30:20.381Z,9.37
2018-07-21T19:32:54.988Z,9.20
2018-07-21T19:35:24.032Z,8.93
2018-07-21T19:37:52.842Z,8.93
2018-07-21T19:40:21.511Z,9.00
2018-07-21T19:42:50.544Z,8.50
2018-07-21T19:45:19.584Z,9.03
2018-07-21T19:47:48.744Z,9.73
2018-07-21T19:50:17.724Z,9.37
2018-07-21T19:52:46.821Z,8.97
2018-07-21T19:55:15.865Z,9.47
2018-07-21T19:57:44.927Z,9.00
2018-07-21T20:00:13.976Z,8.77
2018-07-21T20:02:43.039Z,9.80
2018-07-21T20:05:12.084Z,10.80
2018-07-21T20:07:41.151Z,10.33
2018-07-21T20:10:10.208Z,10.27
2018-07-21T20:12:39.309Z,9.93
2018-07-21T20:15:08.363Z,10.53
2018-07-21T20:17:37.535Z,10.67
2018-07-21T20:20:07.732Z,9.57
2018-07-21T20:22:36.820Z,10.30
2018-07-21T20:25:05.912Z,10.10
2018-07-21T20:27:34.983Z,10.07
2018-07-21T20:30:04.612Z,9.93
2018-07-21T20:32:33.667Z,10.03
2018-07-21T20:35:02.750Z,10.23
2018-07-21T20:37:31.555Z,10.43
2018-07-21T20:40:00.510Z,10.17
2018-07-21T20:42:29.579Z,10.57
2018-07-21T20:44:58.699Z,10.90
2018-07-21T20:47:27.763Z,10.90
2018-07-21T20:49:56.839Z,11.50
2018-07-21T20:52:26.163Z,11.37
2018-07-21T20:54:55.250Z,11.20
2018-07-21T20:57:24.320Z,13.43
2018-07-21T20:59:53.138Z,12.70
2018-07-21T21:02:22.077Z,13.07
2018-07-21T21:04:51.156Z,12.10
2018-07-21T21:07:20.210Z,11.40
2018-07-21T21:09:49.296Z,12.17
2018-07-21T21:12:18.432Z,12.50
2018-07-21T21:14:47.228Z,11.60
2018-07-21T21:17:16.152Z,12.43
2018-07-21T21:19:45.219Z,12.10
2018-07-21T21:22:14.503Z,12.10
2018-07-21T21:24:43.661Z,11.03
2018-07-21T21:27:12.719Z,11.80
2018-07-21T21:29:41.792Z,11.30
2018-07-21T21:32:10.847Z,11.60
2018-07-21T21:34:39.676Z,12.30
2018-07-21T21:37:08.620Z,12.10
2018-07-21T21:39:37.698Z,11.83
2018-07-21T21:42:06.796Z,11.50
2018-07-21T21:44:36.143Z,11.83
2018-07-21T21:47:05.220Z,12.20
2018-07-21T21:49:34.293Z,13.27
2018-07-21T21:52:03.361Z,12.03
2018-07-21T21:54:32.454Z,13.30
2018-07-21T21:57:01.517Z,13.70
2018-07-21T21:59:30.324Z,12.70
2018-07-21T22:01:59.291Z,12.40
2018-07-21T22:04:28.146Z,12.10
2018-07-21T22:06:56.816Z,14.00
2018-07-21T22:09:25.747Z,13.57
2018-07-21T22:11:54.841Z,14.10
2018-07-21T22:14:23.964Z,15.40
2018-07-21T22:16:52.991Z,14.37
2018-07-21T22:19:22.043Z,13.13
2018-07-21T22:21:51.125Z,14.33
2018-07-21T22:24:20.171Z,12.70
2018-07-21T22:26:49.235Z,13.83
2018-07-21T22:29:18.040Z,13.87
2018-07-21T22:31:47.000Z,12.93
2018-07-21T22:34:16.064Z,14.13
2018-07-21T22:36:45.153Z,14.27
2018-07-21T22:39:14.224Z,13.30
2018-07-21T22:41:43.308Z,13.40
2018-07-21T22:44:12.131Z,12.90
2018-07-21T22:46:41.120Z,12.93
2018-07-21T22:49:10.184Z,13.13
2018-07-21T22:51:39.269Z,13.03
2018-07-21T22:54:08.340Z,12.67
2018-07-21T22:56:37.420Z,14.27
2018-07-21T22:59:06.771Z,13.47
2018-07-21T23:01:35.857Z,14.50
2018-07-21T23:04:04.915Z,12.07
2018-07-21T23:06:34.068Z,13.00
2018-07-21T23:09:02.924Z,15.60
2018-07-21T23:11:31.900Z,13.77
2018-07-21T23:14:00.952Z,14.43
2018-07-21T23:16:29.781Z,15.23
2018-07-21T23:18:58.764Z,14.57
2018-07-21T23:21:27.858Z,14.83
2018-07-21T23:23:57.040Z,14.70
2018-07-21T23:26:26.263Z,14.90
2018-07-21T23:28:55.336Z,15.77
2018-07-21T23:31:24.383Z,14.57
2018-07-21T23:33:53.449Z,15.63
2018-07-21T23:36:22.500Z,16.60
2018-07-21T23:38:51.560Z,16.17
2018-07-21T23:41:20.632Z,15.73
2018-07-21T23:43:49.700Z,15.93
2018-07-21T23:46:18.511Z,14.97
2018-07-21T23:48:47.194Z,16.30
2018-07-21T23:51:15.868Z,16.00
2018-07-21T23:53:44.813Z,15.53
2018-07-21T23:56:13.883Z,15.50
2018-07-21T23:58:42.943Z,15.17
